createdAt,value
2023-04-02T00:02:29.479Z,5.97
2023-04-02T00:05:32.417Z,6.13
2023-04-02T00:08:07.485Z,5.80
2023-04-02T00:10:52.927Z,6.00
2023-04-02T00:13:26.470Z,5.90
2023-04-02T00:16:00.002Z,5.63
2023-04-02T00:18:31.733Z,5.10
2023-04-02T00:21:29.197Z,5.07
2023-04-02T00:24:05.285Z,5.13
2023-04-02T00:26:38.436Z,5.83
2023-04-02T00:29:11.571Z,5.50
2023-04-02T00:31:47.652Z,5.10
2023-04-02T00:34:25.867Z,5.73
2023-04-02T00:36:57.402Z,5.37
2023-04-02T00:39:33.594Z,5.37
2023-04-02T00:42:07.136Z,5.13
2023-04-02T00:44:45.753Z,5.77
2023-04-02T00:47:28.488Z,5.83
2023-04-02T00:50:02.121Z,5.90
2023-04-02T00:52:38.132Z,5.00
2023-04-02T00:55:23.354Z,6.20
2023-04-02T00:57:56.181Z,5.80
2023-04-02T01:00:33.343Z,5.90
2023-04-02T01:03:19.292Z,5.73
2023-04-02T01:06:03.040Z,5.70
2023-04-02T01:09:00.588Z,5.97
2023-04-02T01:11:40.338Z,5.67
2023-04-02T01:14:22.671Z,6.27
2023-04-02T01:17:09.058Z,5.50
2023-04-02T01:20:13.939Z,5.83
2023-04-02T01:23:02.558Z,5.43
2023-04-02T01:25:46.745Z,5.67
2023-04-02T01:28:20.333Z,5.80
2023-04-02T01:30:53.441Z,5.43
2023-04-02T01:33:26.390Z,5.50
2023-04-02T01:36:12.005Z,5.40
2023-04-02T01:38:48.766Z,5.00
2023-04-02T01:41:27.176Z,5.00
2023-04-02T01:44:06.263Z,4.93
2023-04-02T01:46:40.001Z,4.70
2023-04-02T01:49:16.691Z,5.03
2023-04-02T01:51:51.602Z,4.50
2023-04-02T01:54:23.749Z,4.83
2023-04-02T01:56:54.771Z,4.53
2023-04-02T01:59:26.308Z,5.17
2023-04-02T02:02:07.986Z,4.90
2023-04-02T02:04:38.954Z,4.50
2023-04-02T02:07:18.359Z,4.23
2023-04-02T02:09:50.601Z,4.03
2023-04-02T02:12:22.125Z,3.60
2023-04-02T02:14:53.142Z,4.23
2023-04-02T02:17:33.614Z,3.87
2023-04-02T02:20:06.666Z,3.63
2023-04-02T02:22:39.664Z,4.00
2023-04-02T02:25:15.965Z,3.93
2023-04-02T02:28:04.687Z,4.40
2023-04-02T02:30:50.199Z,4.10
2023-04-02T02:33:29.645Z,4.10
2023-04-02T02:36:06.421Z,3.83
2023-04-02T02:38:40.060Z,4.10
2023-04-02T02:41:17.175Z,3.97
2023-04-02T02:43:57.112Z,3.60
2023-04-02T02:46:29.944Z,4.23
2023-04-02T02:49:02.724Z,4.27
2023-04-02T02:51:42.158Z,3.80
2023-04-02T02:54:20.105Z,3.60
2023-04-02T02:56:53.661Z,4.07
2023-04-02T02:59:25.084Z,3.67
2023-04-02T03:01:56.252Z,3.83
2023-04-02T03:04:28.964Z,4.27
2023-04-02T03:07:00.010Z,3.97
2023-04-02T03:09:48.174Z,3.60
2023-04-02T03:12:30.803Z,3.83
2023-04-02T03:15:16.118Z,3.80
2023-04-02T03:17:58.590Z,3.73
2023-04-02T03:20:50.103Z,4.07
2023-04-02T03:23:26.307Z,3.67
2023-04-02T03:26:04.679Z,3.30
2023-04-02T03:28:38.052Z,3.73
2023-04-02T03:31:11.615Z,3.53
2023-04-02T03:33:45.278Z,4.10
2023-04-02T03:36:25.645Z,3.90
2023-04-02T03:39:13.476Z,4.00
2023-04-02T03:41:47.129Z,3.70
2023-04-02T03:44:32.925Z,3.60
2023-04-02T03:47:06.779Z,3.77
2023-04-02T03:49:43.976Z,3.60
2023-04-02T03:52:31.574Z,3.77
2023-04-02T03:55:05.202Z,3.93
2023-04-02T03:57:38.890Z,3.50
2023-04-02T04:00:30.166Z,3.73
2023-04-02T04:03:08.237Z,3.70
2023-04-02T04:05:48.534Z,3.50
2023-04-02T04:08:28.597Z,4.10
2023-04-02T04:11:01.380Z,3.60
2023-04-02T04:13:54.595Z,3.97
2023-04-02T04:16:53.714Z,3.53
2023-04-02T04:19:29.104Z,3.93
2023-04-02T04:22:20.869Z,3.63
2023-04-02T04:24:51.470Z,4.17
2023-04-02T04:27:34.613Z,4.07
2023-04-02T04:30:11.019Z,4.67
2023-04-02T04:32:50.341Z,5.60
2023-04-02T04:35:36.090Z,4.50
2023-04-02T04:38:21.200Z,3.90
2023-04-02T04:40:57.458Z,4.03
2023-04-02T04:43:47.440Z,4.30
2023-04-02T04:46:24.062Z,3.80
2023-04-02T04:49:15.462Z,3.60
2023-04-02T04:52:01.192Z,3.80
2023-04-02T04:54:32.057Z,3.77
2023-04-02T04:57:04.769Z,3.87
2023-04-02T04:59:38.397Z,4.43
2023-04-02T05:02:15.094Z,4.20
2023-04-02T05:04:51.414Z,3.97
2023-04-02T05:07:31.992Z,3.70
2023-04-02T05:10:26.502Z,3.67
2023-04-02T05:13:21.977Z,3.70
2023-04-02T05:16:19.350Z,3.97
2023-04-02T05:18:58.357Z,3.50
2023-04-02T05:21:34.899Z,3.63
2023-04-02T05:24:27.169Z,3.30
2023-04-02T05:27:01.458Z,4.27
2023-04-02T05:29:37.001Z,3.57
2023-04-02T05:32:16.535Z,3.70
2023-04-02T05:34:50.222Z,3.20
2023-04-02T05:37:24.035Z,3.40
2023-04-02T05:39:57.754Z,3.20
2023-04-02T05:42:36.875Z,3.17
2023-04-02T05:45:33.064Z,2.50
2023-04-02T05:48:06.745Z,2.63
2023-04-02T05:50:40.361Z,2.63
2023-04-02T05:53:29.134Z,2.50
2023-04-02T05:56:20.418Z,2.60
2023-04-02T05:58:57.817Z,2.73
2023-04-02T06:01:38.304Z,2.30
2023-04-02T06:04:23.535Z,2.30
2023-04-02T06:06:59.355Z,2.10
2023-04-02T06:09:56.772Z,2.00
2023-04-02T06:12:43.227Z,2.30
2023-04-02T06:15:15.662Z,2.20
2023-04-02T06:18:00.776Z,2.03
2023-04-02T06:20:31.636Z,2.60
2023-04-02T06:23:17.179Z,2.33
2023-04-02T06:25:54.522Z,2.00
2023-04-02T06:28:43.800Z,2.30
2023-04-02T06:31:20.446Z,2.13
2023-04-02T06:33:52.897Z,2.20
2023-04-02T06:36:28.636Z,2.53
2023-04-02T06:39:04.494Z,1.87
2023-04-02T06:41:36.549Z,1.70
2023-04-02T06:44:20.722Z,2.37
2023-04-02T06:47:02.945Z,1.90
2023-04-02T06:49:42.565Z,1.97
2023-04-02T06:52:16.431Z,2.00
2023-04-02T06:54:48.439Z,1.97
2023-04-02T06:57:19.525Z,1.83
2023-04-02T06:59:50.380Z,2.12
2023-04-02T07:02:24.735Z,2.17
2023-04-02T07:05:04.727Z,1.85
2023-04-02T07:07:35.437Z,1.77
2023-04-02T07:10:09.954Z,1.80
2023-04-02T07:12:40.622Z,2.00
2023-04-02T07:15:14.181Z,1.73
2023-04-02T07:17:45.237Z,1.70
2023-04-02T07:20:27.888Z,1.43
2023-04-02T07:22:58.883Z,1.57
2023-04-02T07:25:31.333Z,1.80
2023-04-02T07:28:03.965Z,1.67
2023-04-02T07:30:34.613Z,1.60
2023-04-02T07:33:05.387Z,1.47
2023-04-02T07:35:40.418Z,1.80
2023-04-02T07:38:11.328Z,1.63
2023-04-02T07:40:43.047Z,1.80
2023-04-02T07:43:14.162Z,1.63
2023-04-02T07:45:46.248Z,1.73
2023-04-02T07:48:16.941Z,1.70
2023-04-02T07:50:47.530Z,1.57
2023-04-02T07:53:29.168Z,1.70
2023-04-02T07:56:02.179Z,1.80
2023-04-02T07:58:34.113Z,1.87
2023-04-02T08:01:05.679Z,2.30
2023-04-02T08:03:38.484Z,1.87
2023-04-02T08:06:09.091Z,1.63
2023-04-02T08:08:40.254Z,1.90
2023-04-02T08:11:11.633Z,2.20
2023-04-02T08:13:42.417Z,2.00
2023-04-02T08:16:13.190Z,1.80
2023-04-02T08:18:43.879Z,2.00
2023-04-02T08:21:16.328Z,1.90
2023-04-02T08:23:46.803Z,1.90
2023-04-02T08:26:23.832Z,2.67
2023-04-02T08:28:54.542Z,2.10
2023-04-02T08:31:25.405Z,2.10
2023-04-02T08:33:59.468Z,2.10
2023-04-02T08:36:39.054Z,2.37
2023-04-02T08:39:11.522Z,2.10
2023-04-02T08:41:47.756Z,2.30
2023-04-02T08:44:38.834Z,2.72
2023-04-02T08:47:11.538Z,2.50
2023-04-02T08:49:47.764Z,2.47
2023-04-02T08:52:24.089Z,2.15
2023-04-02T08:54:57.927Z,2.27
2023-04-02T08:57:49.904Z,1.90
2023-04-02T09:00:29.857Z,2.27
2023-04-02T09:03:03.573Z,2.03
2023-04-02T09:05:37.820Z,1.93
2023-04-02T09:08:21.188Z,2.23
2023-04-02T09:11:06.900Z,2.20
2023-04-02T09:13:40.679Z,1.70
2023-04-02T09:16:23.153Z,1.70
2023-04-02T09:18:55.569Z,1.77
2023-04-02T09:21:37.761Z,1.70
2023-04-02T09:24:17.578Z,2.00
2023-04-02T09:26:48.550Z,2.03
2023-04-02T09:29:27.710Z,1.65
2023-04-02T09:32:05.127Z,2.35
2023-04-02T09:34:37.649Z,1.80
2023-04-02T09:37:11.650Z,1.70
2023-04-02T09:39:42.256Z,2.00
2023-04-02T09:42:37.675Z,1.37
2023-04-02T09:45:22.789Z,1.60
2023-04-02T09:47:55.708Z,1.47
2023-04-02T09:50:29.357Z,1.30
2023-04-02T09:53:01.906Z,1.47
2023-04-02T09:55:34.388Z,1.60
2023-04-02T09:58:11.083Z,1.70
2023-04-02T10:00:45.677Z,1.65
2023-04-02T10:03:28.745Z,1.70
2023-04-02T10:06:11.389Z,1.50
2023-04-02T10:08:44.554Z,1.83
2023-04-02T10:11:21.351Z,1.50
2023-04-02T10:14:12.750Z,1.65
2023-04-02T10:16:55.657Z,1.50
2023-04-02T10:19:35.732Z,1.55
2023-04-02T10:22:17.993Z,2.08
2023-04-02T10:24:49.625Z,2.05
2023-04-02T10:27:36.871Z,1.70
2023-04-02T10:30:27.261Z,1.95
2023-04-02T10:33:04.151Z,1.62
2023-04-02T10:35:46.729Z,1.90
2023-04-02T10:38:39.628Z,2.00
2023-04-02T10:41:33.643Z,1.90
2023-04-02T10:44:19.474Z,1.80
2023-04-02T10:46:55.929Z,2.10
2023-04-02T10:49:44.481Z,1.65
2023-04-02T10:52:25.219Z,2.30
2023-04-02T10:54:58.737Z,1.85
2023-04-02T10:57:41.326Z,2.08
2023-04-02T11:00:20.986Z,1.55
2023-04-02T11:02:57.487Z,1.90
2023-04-02T11:05:46.419Z,1.70
2023-04-02T11:08:22.918Z,1.80
2023-04-02T11:11:23.663Z,1.52
2023-04-02T11:14:02.930Z,1.62
2023-04-02T11:16:34.663Z,1.67
2023-04-02T11:19:21.476Z,1.80
2023-04-02T11:22:02.502Z,1.80
2023-04-02T11:24:38.708Z,1.80
2023-04-02T11:27:12.464Z,1.65
2023-04-02T11:29:57.819Z,1.70
2023-04-02T11:32:31.391Z,2.20
2023-04-02T11:35:25.913Z,1.80
2023-04-02T11:37:58.819Z,1.92
2023-04-02T11:40:50.022Z,2.10
2023-04-02T11:43:38.547Z,2.10
2023-04-02T11:46:20.957Z,1.98
2023-04-02T11:48:52.575Z,2.20
2023-04-02T11:51:26.130Z,2.65
2023-04-02T11:53:59.418Z,2.00
2023-04-02T11:56:38.714Z,2.33
2023-04-02T11:59:21.248Z,1.87
2023-04-02T12:02:07.462Z,2.08
2023-04-02T12:05:04.866Z,1.90
2023-04-02T12:07:55.783Z,2.00
2023-04-02T12:10:32.348Z,1.73
2023-04-02T12:13:02.794Z,2.00
2023-04-02T12:15:47.565Z,1.70
2023-04-02T12:18:25.635Z,2.17
2023-04-02T12:20:58.092Z,1.92
2023-04-02T12:23:36.715Z,1.92
2023-04-02T12:26:14.344Z,1.70
2023-04-02T12:28:46.546Z,1.80
2023-04-02T12:31:20.683Z,1.90
2023-04-02T12:33:54.432Z,2.00
2023-04-02T12:36:28.261Z,1.80
2023-04-02T12:38:59.440Z,1.92
2023-04-02T12:41:33.526Z,1.85
2023-04-02T12:44:06.626Z,1.72
2023-04-02T12:46:37.475Z,1.50
2023-04-02T12:49:26.693Z,1.35
2023-04-02T12:51:58.736Z,1.52
2023-04-02T12:54:30.535Z,1.80
2023-04-02T12:57:22.318Z,1.67
2023-04-02T12:59:55.103Z,1.50
2023-04-02T13:02:32.126Z,1.40
2023-04-02T13:05:05.186Z,2.00
2023-04-02T13:07:41.584Z,1.50
2023-04-02T13:10:26.644Z,1.55
2023-04-02T13:13:00.820Z,2.35
2023-04-02T13:15:38.670Z,1.70
2023-04-02T13:18:15.525Z,1.50
2023-04-02T13:21:00.683Z,1.45
2023-04-02T13:23:34.307Z,1.60
2023-04-02T13:26:13.823Z,1.60
2023-04-02T13:28:58.726Z,1.30
2023-04-02T13:31:31.784Z,1.30
2023-04-02T13:34:03.273Z,1.22
2023-04-02T13:36:34.123Z,1.62
2023-04-02T13:39:30.419Z,1.60
2023-04-02T13:42:11.989Z,1.70
2023-04-02T13:44:43.552Z,1.70
2023-04-02T13:47:16.422Z,1.70
2023-04-02T13:49:48.653Z,1.52
2023-04-02T13:52:19.338Z,1.80
2023-04-02T13:54:56.004Z,1.80
2023-04-02T13:57:29.634Z,1.60
2023-04-02T14:00:00.612Z,1.70
2023-04-02T14:02:31.392Z,1.40
2023-04-02T14:05:37.035Z,1.60
2023-04-02T14:08:19.531Z,1.57
2023-04-02T14:11:08.924Z,1.53
2023-04-02T14:13:42.573Z,1.40
2023-04-02T14:16:28.087Z,1.20
2023-04-02T14:19:21.220Z,1.47
2023-04-02T14:22:03.640Z,1.80
2023-04-02T14:24:43.021Z,1.80
2023-04-02T14:27:22.340Z,2.08
2023-04-02T14:29:59.859Z,1.60
2023-04-02T14:32:33.457Z,1.65
2023-04-02T14:35:39.955Z,1.72
2023-04-02T14:38:34.088Z,1.80
2023-04-02T14:41:25.463Z,1.60
2023-04-02T14:43:59.128Z,1.95
2023-04-02T14:46:32.051Z,1.67
2023-04-02T14:49:17.776Z,1.57
2023-04-02T14:51:54.947Z,1.72
2023-04-02T14:54:34.326Z,1.70
2023-04-02T14:57:21.738Z,1.83
2023-04-02T15:00:29.832Z,1.70
2023-04-02T15:03:21.550Z,1.50
2023-04-02T15:06:01.331Z,1.75
2023-04-02T15:08:37.954Z,1.40
2023-04-02T15:11:21.082Z,2.10
2023-04-02T15:13:58.535Z,1.47
2023-04-02T15:16:29.409Z,1.80
2023-04-02T15:19:04.032Z,1.50
2023-04-02T15:21:57.159Z,1.30
2023-04-02T15:24:21.852Z,1.70
2023-04-02T15:26:58.330Z,1.67
2023-04-02T15:29:34.995Z,1.50
2023-04-02T15:32:23.868Z,1.73
2023-04-02T15:35:03.520Z,1.50
2023-04-02T15:37:59.266Z,1.45
2023-04-02T15:41:05.883Z,5.03
2023-04-02T15:43:51.508Z,2.62
2023-04-02T15:46:45.600Z,2.47
2023-04-02T15:49:43.028Z,1.90
2023-04-02T15:52:36.049Z,2.27
2023-04-02T15:55:29.004Z,1.60
2023-04-02T15:58:05.861Z,1.60
2023-04-02T16:00:39.368Z,1.73
2023-04-02T16:03:17.415Z,1.70
2023-04-02T16:06:08.931Z,1.67
2023-04-02T16:08:58.450Z,1.60
2023-04-02T16:11:30.628Z,2.07
2023-04-02T16:14:06.852Z,1.98
2023-04-02T16:16:39.938Z,1.70
2023-04-02T16:19:31.703Z,1.40
2023-04-02T16:22:07.902Z,1.70
2023-04-02T16:24:38.649Z,1.73
2023-04-02T16:27:39.034Z,2.00
2023-04-02T16:30:15.428Z,2.00
2023-04-02T16:33:04.591Z,1.70
2023-04-02T16:35:44.104Z,1.40
2023-04-02T16:38:34.051Z,1.60
2023-04-02T16:41:22.006Z,1.42
2023-04-02T16:44:07.330Z,1.50
2023-04-02T16:46:48.194Z,1.60
2023-04-02T16:49:39.508Z,1.40
2023-04-02T16:52:22.781Z,1.87
2023-04-02T16:55:11.671Z,1.50
2023-04-02T16:58:00.571Z,1.70
2023-04-02T17:00:49.219Z,1.70
2023-04-02T17:03:37.538Z,1.60
2023-04-02T17:06:30.804Z,1.70
2023-04-02T17:09:19.099Z,1.87
2023-04-02T17:12:00.333Z,2.80
2023-04-02T17:14:54.736Z,2.40
2023-04-02T17:17:26.343Z,2.40
2023-04-02T17:20:01.862Z,2.20
2023-04-02T17:22:33.493Z,2.15
2023-04-02T17:25:05.668Z,2.13
2023-04-02T17:27:42.394Z,1.80
2023-04-02T17:30:38.998Z,2.17
2023-04-02T17:33:19.241Z,2.10
2023-04-02T17:36:02.730Z,1.90
2023-04-02T17:38:59.383Z,2.30
2023-04-02T17:41:38.491Z,2.40
2023-04-02T17:44:15.149Z,2.40
2023-04-02T17:47:03.611Z,2.70
2023-04-02T17:49:54.920Z,2.07
2023-04-02T17:52:50.282Z,1.67
2023-04-02T17:55:23.808Z,2.20
2023-04-02T17:58:26.421Z,2.40
2023-04-02T18:01:00.345Z,2.40
2023-04-02T18:03:43.942Z,1.90
2023-04-02T18:06:32.650Z,2.60
2023-04-02T18:09:15.218Z,2.33
2023-04-02T18:12:19.107Z,2.17
2023-04-02T18:15:07.992Z,2.00
2023-04-02T18:17:41.557Z,1.70
2023-04-02T18:20:32.904Z,2.27
2023-04-02T18:23:23.094Z,2.15
2023-04-02T18:26:16.040Z,2.77
2023-04-02T18:29:01.898Z,2.03
2023-04-02T18:31:48.010Z,2.10
2023-04-02T18:34:42.578Z,2.47
2023-04-02T18:37:20.450Z,3.07
2023-04-02T18:39:54.209Z,1.90
2023-04-02T18:42:30.501Z,2.10
2023-04-02T18:45:08.070Z,2.13
2023-04-02T18:47:56.985Z,2.30
2023-04-02T18:50:36.269Z,2.20
2023-04-02T18:53:19.782Z,1.90
2023-04-02T18:56:00.598Z,2.07
2023-04-02T18:58:52.970Z,2.10
2023-04-02T19:01:31.001Z,2.00
2023-04-02T19:04:13.642Z,2.53
2023-04-02T19:06:47.316Z,2.00
2023-04-02T19:09:40.542Z,2.40
2023-04-02T19:12:23.720Z,2.40
2023-04-02T19:14:55.944Z,2.07
2023-04-02T19:17:38.333Z,2.10
2023-04-02T19:20:32.781Z,2.40
2023-04-02T19:23:17.905Z,2.50
2023-04-02T19:26:00.559Z,2.13
2023-04-02T19:29:02.663Z,2.10
2023-04-02T19:31:37.967Z,2.00
2023-04-02T19:34:23.290Z,2.47
2023-04-02T19:36:59.978Z,2.47
2023-04-02T19:39:54.541Z,2.10
2023-04-02T19:42:43.130Z,2.57
2023-04-02T19:45:43.637Z,2.40
2023-04-02T19:48:24.725Z,2.27
2023-04-02T19:50:55.254Z,2.07
2023-04-02T19:53:27.162Z,2.50
2023-04-02T19:55:58.656Z,2.20
2023-04-02T19:58:31.030Z,1.73
2023-04-02T20:01:04.430Z,2.10
2023-04-02T20:03:36.220Z,2.40
2023-04-02T20:06:10.668Z,2.07
2023-04-02T20:08:42.317Z,2.30
2023-04-02T20:11:13.289Z,2.00
2023-04-02T20:13:45.847Z,2.40
2023-04-02T20:16:17.395Z,2.03
2023-04-02T20:18:48.859Z,2.20
2023-04-02T20:21:19.405Z,2.57
2023-04-02T20:23:57.396Z,1.97
2023-04-02T20:26:29.942Z,2.50
2023-04-02T20:29:00.726Z,1.90
2023-04-02T20:31:32.319Z,2.27
2023-04-02T20:34:06.737Z,2.30
2023-04-02T20:36:38.509Z,2.20
2023-04-02T20:39:10.576Z,2.10
2023-04-02T20:41:44.082Z,1.90
2023-04-02T20:44:15.791Z,1.80
2023-04-02T20:46:49.862Z,2.23
2023-04-02T20:49:20.582Z,1.83
2023-04-02T20:51:51.379Z,1.70
2023-04-02T20:54:22.153Z,1.87
2023-04-02T20:56:53.548Z,1.70
2023-04-02T20:59:26.841Z,2.27
2023-04-02T21:01:59.032Z,2.30
2023-04-02T21:04:29.728Z,2.10
2023-04-02T21:07:01.043Z,2.00
2023-04-02T21:09:32.957Z,2.63
2023-04-02T21:12:03.703Z,2.40
2023-04-02T21:14:36.402Z,2.37
2023-04-02T21:17:07.757Z,2.17
2023-04-02T21:19:39.748Z,2.00
2023-04-02T21:22:11.724Z,2.27
2023-04-02T21:24:47.978Z,2.20
2023-04-02T21:27:18.438Z,1.80
2023-04-02T21:29:49.143Z,1.97
2023-04-02T21:32:21.663Z,1.80
2023-04-02T21:34:51.850Z,2.13
2023-04-02T21:37:22.749Z,1.60
2023-04-02T21:39:54.464Z,1.97
2023-04-02T21:42:26.120Z,2.03
2023-04-02T21:44:56.753Z,1.80
2023-04-02T21:47:27.743Z,2.20
2023-04-02T21:49:58.247Z,1.80
2023-04-02T21:52:35.019Z,2.60
2023-04-02T21:55:05.369Z,1.67
2023-04-02T21:57:36.206Z,1.63
2023-04-02T22:00:10.683Z,1.90
2023-04-02T22:02:41.471Z,1.90
2023-04-02T22:05:12.413Z,1.90
2023-04-02T22:07:43.039Z,2.23
2023-04-02T22:10:13.696Z,1.63
2023-04-02T22:12:44.300Z,2.10
2023-04-02T22:15:16.318Z,2.20
2023-04-02T22:17:46.965Z,2.03
2023-04-02T22:20:17.482Z,1.97
2023-04-02T22:22:48.903Z,2.00
2023-04-02T22:25:19.421Z,1.90
2023-04-02T22:27:51.667Z,1.50
2023-04-02T22:30:22.236Z,1.93
2023-04-02T22:32:53.677Z,1.80
2023-04-02T22:35:24.945Z,1.70
2023-04-02T22:37:55.753Z,2.00
2023-04-02T22:40:28.455Z,2.20
2023-04-02T22:42:59.115Z,1.90
2023-04-02T22:45:29.829Z,1.93
2023-04-02T22:48:00.865Z,2.17
2023-04-02T22:50:31.341Z,2.00
2023-04-02T22:53:03.512Z,1.67
2023-04-02T22:55:34.064Z,2.13
2023-04-02T22:58:05.039Z,2.10
2023-04-02T23:00:37.238Z,1.80
2023-04-02T23:03:08.630Z,1.90
2023-04-02T23:05:42.137Z,2.00
2023-04-02T23:08:16.045Z,1.87
2023-04-02T23:10:49.365Z,2.40
2023-04-02T23:13:20.427Z,1.67
2023-04-02T23:15:52.203Z,1.97
2023-04-02T23:18:23.140Z,1.90
2023-04-02T23:20:55.592Z,2.00
2023-04-02T23:23:29.115Z,1.60
2023-04-02T23:26:08.049Z,2.23
2023-04-02T23:28:39.565Z,1.90
2023-04-02T23:31:17.365Z,2.10
2023-04-02T23:33:48.339Z,1.83
2023-04-02T23:36:30.737Z,2.20
2023-04-02T23:39:04.351Z,1.77
2023-04-02T23:41:34.850Z,2.20
2023-04-02T23:44:06.012Z,1.90
2023-04-02T23:46:37.816Z,2.10
2023-04-02T23:49:11.263Z,1.90
2023-04-02T23:51:43.028Z,1.80
2023-04-02T23:54:13.830Z,2.00
2023-04-02T23:56:44.650Z,1.83
2023-04-02T23:59:15.564Z,2.10
